Time;durP1;ratioP1;P1;durP2;ratioP2;P2;SDS_P1;SDS_P2;PMS_P1;PMS_P2;Temp;Humidity;BMP_temperature;BMP_pressure;BME280_temperature;BME280_humidity;BME280_pressure;Samples;Min_cycle;Max_cycle;Signal;HPM_P1;HPM_P2
2022/05/03 00:02:47;;;;;;;;;;;;;;;16.78;55.61;100582.81;5065005;28;19916;-82
2022/05/03 00:05:35;;;;;;;;;;;;;;;16.75;55.63;100581.59;5064894;28;19913;-82
2022/05/03 00:08:27;;;;;;;;;;;;;;;16.71;55.81;100577.94;5059434;28;19920;-85
2022/05/03 00:11:18;;;;;;;;;;;;;;;16.69;55.94;100577.53;5059893;28;19913;-84
2022/05/03 00:14:08;;;;;;;;;;;;;;;16.66;55.90;100576.28;5069260;28;19921;-82
2022/05/03 00:16:53;;;;;;;;;;;;;;;16.59;55.56;100572.59;5068768;28;19916;-83
2022/05/03 00:19:39;;;;;;;;;;;;;;;16.67;56.21;100571.59;5053784;28;19912;-80
2022/05/03 00:22:24;;;;;;;;;;;;;;;16.65;56.21;100565.69;5056784;28;20397;-85
2022/05/03 00:25:08;;;;;;;;;;;;;;;16.61;55.37;100562.03;5035405;28;19924;-83
2022/05/03 00:27:53;;;;;;;;;;;;;;;16.68;55.51;100563.00;5054022;28;19913;-83
2022/05/03 00:30:38;;;;;;;;;;;;;;;16.75;55.27;100561.56;5052113;28;19913;-84
2022/05/03 00:33:23;;;;;;;;;;;;;;;16.68;55.77;100559.47;5055754;28;19912;-83
2022/05/03 00:36:07;;;;;;;;;;;;;;;16.64;55.82;100566.84;5073730;28;19916;-82
2022/05/03 00:38:52;;;;;;;;;;;;;;;16.58;55.76;100551.75;5069244;28;19917;-83
2022/05/03 00:41:45;;;;;;;;;;;;;;;16.57;55.73;100555.66;5069648;28;20508;-85
2022/05/03 00:47:54;;;;;;;;;;;;;;;16.46;56.47;100549.13;5055964;28;19917;-82
2022/05/03 00:50:42;;;;;;;;;;;;;;;16.39;56.70;100538.00;5076005;28;20365;-85
2022/05/03 00:53:30;;;;;;;;;;;;;;;16.41;56.06;100547.47;5057167;28;19912;-84
2022/05/03 00:56:21;;;;;;;;;;;;;;;16.38;55.97;100548.19;5055705;28;20377;-84
2022/05/03 00:59:08;;;;;;;;;;;;;;;16.34;56.23;100547.31;5058862;28;19917;-82
2022/05/03 01:02:05;;;;;;;;;;;;;;;16.31;56.46;100547.22;5070185;28;19913;-84
2022/05/03 01:04:50;;;;;;;;;;;;;;;16.25;56.35;100539.25;5048930;28;19913;-82
2022/05/03 01:07:42;;;;;;;;;;;;;;;16.30;56.44;100540.16;5048858;28;20292;-81
2022/05/03 01:10:33;;;;;;;;;;;;;;;16.29;55.62;100541.31;5050846;28;19912;-86
2022/05/03 01:13:18;;;;;;;;;;;;;;;16.19;55.62;100543.47;5051160;28;19921;-83
2022/05/03 01:16:03;;;;;;;;;;;;;;;16.20;55.88;100541.50;5057666;28;19912;-83
2022/05/03 01:18:53;;;;;;;;;;;;;;;16.15;55.52;100545.31;5074833;28;19916;-84
2022/05/03 01:21:38;;;;;;;;;;;;;;;16.09;55.81;100543.22;5054506;28;19912;-82
2022/05/03 01:24:32;;;;;;;;;;;;;;;16.04;56.77;100547.03;5068040;28;19912;-85
2022/05/03 01:27:16;;;;;;;;;;;;;;;15.92;56.62;100547.13;5040496;28;19924;-86
2022/05/03 01:30:01;;;;;;;;;;;;;;;15.92;56.00;100544.38;5065951;28;20327;-84
2022/05/03 01:32:48;;;;;;;;;;;;;;;15.81;56.34;100541.38;5071669;28;19913;-85
2022/05/03 01:35:37;;;;;;;;;;;;;;;15.83;56.43;100538.28;5069303;28;19912;-83
2022/05/03 01:38:31;;;;;;;;;;;;;;;15.93;56.45;100545.16;5059442;28;19916;-83
2022/05/03 01:41:34;;;;;;;;;;;;;;;15.95;55.77;100551.88;5073638;28;19912;-83
2022/05/03 01:44:18;;;;;;;;;;;;;;;15.97;55.69;100546.03;5047768;28;19916;-83
2022/05/03 01:47:06;;;;;;;;;;;;;;;15.86;55.39;100551.28;5054334;28;20297;-83
2022/05/03 01:53:26;;;;;;;;;;;;;;;15.91;55.56;100544.72;5032885;28;19913;-84
2022/05/03 01:56:29;;;;;;;;;;;;;;;15.86;55.05;100544.97;5040168;28;19916;-84
2022/05/03 01:59:26;;;;;;;;;;;;;;;15.89;54.81;100541.56;5053709;28;20382;-84
2022/05/03 02:02:30;;;;;;;;;;;;;;;15.90;55.61;100543.16;5041121;28;19912;-83
2022/05/03 02:05:34;;;;;;;;;;;;;;;15.90;54.82;100541.19;5053120;28;19917;-82
2022/05/03 02:08:21;;;;;;;;;;;;;;;15.88;54.48;100538.00;5053589;28;20304;-85
2022/05/03 02:11:24;;;;;;;;;;;;;;;15.80;54.63;100542.50;5038730;28;19912;-83
2022/05/03 02:17:34;;;;;;;;;;;;;;;15.76;54.90;100538.09;5058313;28;19917;-85
2022/05/03 02:20:37;;;;;;;;;;;;;;;15.77;54.92;100540.50;5053257;28;19916;-84
2022/05/03 02:23:57;;;;;;;;;;;;;;;15.87;54.51;100536.41;5068682;28;19975;-83
2022/05/03 02:27:04;;;;;;;;;;;;;;;15.82;54.98;100537.47;5065829;28;19912;-82
2022/05/03 02:29:50;;;;;;;;;;;;;;;15.83;55.04;100543.75;5068345;28;19916;-83
2022/05/03 02:32:44;;;;;;;;;;;;;;;15.83;54.37;100538.28;5052884;28;19913;-84
2022/05/03 02:35:33;;;;;;;;;;;;;;;15.79;55.03;100534.66;5055964;28;19913;-82
2022/05/03 02:38:20;;;;;;;;;;;;;;;15.81;54.88;100535.09;5058656;28;19921;-84
2022/05/03 02:41:08;;;;;;;;;;;;;;;15.76;55.72;100538.09;5071859;28;19913;-84
2022/05/03 02:43:55;;;;;;;;;;;;;;;15.71;56.10;100538.34;5050418;28;19913;-84
2022/05/03 02:46:48;;;;;;;;;;;;;;;15.63;56.35;100539.34;5063558;28;19917;-85
2022/05/03 02:49:49;;;;;;;;;;;;;;;15.55;56.54;100543.03;5072686;28;19912;-83
2022/05/03 02:52:51;;;;;;;;;;;;;;;15.50;56.65;100532.31;5068100;28;19913;-84
2022/05/03 02:55:38;;;;;;;;;;;;;;;15.49;56.58;100534.25;5066043;28;19913;-84
2022/05/03 02:58:37;;;;;;;;;;;;;;;15.46;56.30;100540.44;5069389;28;19917;-83
2022/05/03 03:01:48;;;;;;;;;;;;;;;15.25;56.75;100540.66;5072352;28;19920;-85
2022/05/03 03:04:52;;;;;;;;;;;;;;;15.35;56.79;100542.91;5072497;28;19913;-83
2022/05/03 03:07:39;;;;;;;;;;;;;;;15.40;56.40;100531.69;5038148;28;19913;-84
2022/05/03 03:10:30;;;;;;;;;;;;;;;15.43;56.37;100535.69;5072463;28;19912;-84
2022/05/03 03:13:17;;;;;;;;;;;;;;;15.33;56.38;100534.25;5048643;28;19913;-83
2022/05/03 03:16:02;;;;;;;;;;;;;;;15.31;56.44;100539.28;5066982;28;19912;-83
2022/05/03 03:18:47;;;;;;;;;;;;;;;15.13;56.64;100535.28;5049946;28;20389;-83
2022/05/03 03:21:32;;;;;;;;;;;;;;;15.24;57.06;100541.81;5034329;28;20393;-81
2022/05/03 03:24:17;;;;;;;;;;;;;;;15.24;57.06;100532.78;5046052;28;19913;-83
2022/05/03 03:27:02;;;;;;;;;;;;;;;15.09;57.33;100528.06;5048140;28;19913;-82
2022/05/03 03:29:48;;;;;;;;;;;;;;;15.20;56.74;100529.97;5051595;28;19913;-83
2022/05/03 03:32:35;;;;;;;;;;;;;;;15.09;56.93;100531.63;5059807;28;19938;-82
2022/05/03 03:35:20;;;;;;;;;;;;;;;15.17;57.10;100527.94;5051572;28;20529;-83
2022/05/03 03:38:05;;;;;;;;;;;;;;;15.20;56.34;100531.91;5037568;28;19917;-82
2022/05/03 03:40:49;;;;;;;;;;;;;;;15.12;56.78;100535.63;5071518;28;20408;-82
2022/05/03 03:43:34;;;;;;;;;;;;;;;14.99;57.19;100534.84;5072094;28;19934;-84
2022/05/03 03:46:19;;;;;;;;;;;;;;;14.87;57.43;100540.41;5075467;28;19913;-86
2022/05/03 03:49:04;;;;;;;;;;;;;;;14.86;57.36;100534.13;5074002;28;19913;-85
2022/05/03 03:51:50;;;;;;;;;;;;;;;14.83;57.41;100531.28;5057870;28;19912;-83
2022/05/03 03:54:35;;;;;;;;;;;;;;;14.79;57.10;100539.38;5056634;28;19913;-83
2022/05/03 03:57:21;;;;;;;;;;;;;;;14.89;57.34;100535.34;5070021;28;20381;-85
2022/05/03 04:00:07;;;;;;;;;;;;;;;14.92;57.04;100542.88;5061163;28;19912;-82
2022/05/03 04:02:57;;;;;;;;;;;;;;;14.93;57.89;100545.25;5055753;28;19967;-85
2022/05/03 04:05:44;;;;;;;;;;;;;;;14.91;57.48;100547.56;5055594;28;20324;-85
2022/05/03 04:08:29;;;;;;;;;;;;;;;14.97;57.53;100542.66;5061423;28;20390;-82
2022/05/03 04:11:14;;;;;;;;;;;;;;;15.00;57.69;100552.88;5070917;28;20289;-84
2022/05/03 04:13:59;;;;;;;;;;;;;;;14.95;57.78;100537.50;5066888;28;19913;-81
2022/05/03 04:16:43;;;;;;;;;;;;;;;15.01;58.05;100550.94;5065890;28;20389;-81
2022/05/03 04:19:27;;;;;;;;;;;;;;;14.92;57.32;100553.84;5059213;28;19917;-83
2022/05/03 04:22:27;;;;;;;;;;;;;;;14.96;57.58;100554.72;5070006;28;19913;-83
2022/05/03 04:25:12;;;;;;;;;;;;;;;14.82;57.93;100557.06;5055625;28;19913;-84
2022/05/03 04:27:56;;;;;;;;;;;;;;;14.85;58.54;100551.69;5061272;28;19921;-81
2022/05/03 04:30:40;;;;;;;;;;;;;;;14.95;58.52;100553.94;5052169;28;19912;-82
2022/05/03 04:33:25;;;;;;;;;;;;;;;14.93;57.73;100558.19;5061628;28;19913;-81
2022/05/03 04:36:09;;;;;;;;;;;;;;;15.00;57.73;100558.38;5067706;28;19913;-84
2022/05/03 04:38:53;;;;;;;;;;;;;;;14.94;57.81;100557.00;5069778;28;19916;-81
2022/05/03 04:41:38;;;;;;;;;;;;;;;14.88;57.56;100564.66;5054235;28;19913;-81
2022/05/03 04:44:22;;;;;;;;;;;;;;;14.92;58.53;100559.31;5068760;28;19920;-81
2022/05/03 04:47:07;;;;;;;;;;;;;;;14.96;58.24;100574.69;5070746;28;20292;-83
2022/05/03 04:49:51;;;;;;;;;;;;;;;15.02;57.56;100572.53;5067667;28;19913;-85
2022/05/03 04:52:36;;;;;;;;;;;;;;;15.05;57.60;100577.28;5058439;28;19912;-80
2022/05/03 04:55:20;;;;;;;;;;;;;;;15.12;57.26;100579.44;5074807;28;19916;-81
2022/05/03 04:58:05;;;;;;;;;;;;;;;15.17;57.53;100576.44;5063259;28;20293;-82
2022/05/03 05:00:49;;;;;;;;;;;;;;;15.20;57.11;100579.28;5072083;28;19912;-83
2022/05/03 05:03:34;;;;;;;;;;;;;;;15.23;57.27;100581.34;5070901;28;20281;-82
2022/05/03 05:06:19;;;;;;;;;;;;;;;15.29;56.81;100573.63;5054630;28;19913;-80
2022/05/03 05:09:03;;;;;;;;;;;;;;;15.20;56.61;100581.22;5053818;28;19935;-82
2022/05/03 05:11:49;;;;;;;;;;;;;;;15.25;57.00;100578.22;5051979;28;19913;-83
2022/05/03 05:14:33;;;;;;;;;;;;;;;15.24;57.39;100585.63;5044655;22;19922;-81
2022/05/03 05:17:18;;;;;;;;;;;;;;;15.38;57.36;100583.31;4970675;28;19923;-81
2022/05/03 05:20:02;;;;;;;;;;;;;;;15.28;56.67;100583.03;4983771;28;19922;-80
2022/05/03 05:22:47;;;;;;;;;;;;;;;15.26;57.07;100586.09;4982817;28;19914;-80
2022/05/03 05:25:31;;;;;;;;;;;;;;;15.37;57.49;100592.69;4971464;28;20390;-80
2022/05/03 05:28:17;;;;;;;;;;;;;;;15.38;57.37;100594.28;4967395;29;19918;-80
2022/05/03 05:31:01;;;;;;;;;;;;;;;15.38;57.36;100593.47;4951984;28;19919;-80
2022/05/03 05:33:46;;;;;;;;;;;;;;;15.37;57.00;100598.16;4966801;28;19914;-80
2022/05/03 05:36:30;;;;;;;;;;;;;;;15.47;57.29;100601.53;4969038;28;19914;-79
2022/05/03 05:39:15;;;;;;;;;;;;;;;15.48;57.51;100595.72;4966449;28;19914;-79
2022/05/03 05:42:01;;;;;;;;;;;;;;;15.51;56.90;100597.75;4955141;28;19926;-79
2022/05/03 05:44:46;;;;;;;;;;;;;;;15.60;56.95;100601.13;4970410;28;19914;-78
2022/05/03 05:47:31;;;;;;;;;;;;;;;15.60;57.05;100601.13;4980561;28;19914;-80
2022/05/03 05:50:15;;;;;;;;;;;;;;;15.65;57.46;100603.63;4986308;28;19914;-80
2022/05/03 05:56:04;;;;;;;;;;;;;;;15.79;57.86;100614.19;4950737;29;19918;-80
2022/05/03 05:58:49;;;;;;;;;;;;;;;15.92;57.26;100610.19;4956357;28;19915;-80
2022/05/03 06:01:37;;;;;;;;;;;;;;;16.06;57.36;100623.44;4946275;29;19922;-81
2022/05/03 06:04:22;;;;;;;;;;;;;;;16.08;57.21;100621.97;4972165;28;19914;-81
2022/05/03 06:07:06;;;;;;;;;;;;;;;16.12;57.37;100614.63;4973248;28;19914;-79
2022/05/03 06:09:51;;;;;;;;;;;;;;;16.14;56.97;100620.56;4974522;28;19914;-80
2022/05/03 06:12:36;;;;;;;;;;;;;;;16.19;56.83;100631.25;4963892;28;19915;-79
2022/05/03 06:15:21;;;;;;;;;;;;;;;16.20;56.83;100623.81;4956556;29;19922;-79
2022/05/03 06:18:06;;;;;;;;;;;;;;;16.22;56.92;100625.06;4959435;28;19914;-80
2022/05/03 06:20:51;;;;;;;;;;;;;;;16.24;56.97;100621.97;4978886;28;20379;-80
2022/05/03 06:23:36;;;;;;;;;;;;;;;16.27;56.99;100624.78;4972745;28;19914;-79
2022/05/03 06:26:21;;;;;;;;;;;;;;;16.33;57.03;100630.81;4949020;28;19914;-79
2022/05/03 06:29:08;;;;;;;;;;;;;;;16.45;57.04;100627.16;4956568;28;19914;-80
2022/05/03 06:31:53;;;;;;;;;;;;;;;16.56;56.91;100625.44;4971622;28;19918;-79
2022/05/03 06:34:37;;;;;;;;;;;;;;;16.71;56.66;100630.13;4957969;28;19915;-79
2022/05/03 06:37:22;;;;;;;;;;;;;;;16.82;55.91;100630.38;4952397;29;19926;-80
2022/05/03 06:40:08;;;;;;;;;;;;;;;16.89;55.03;100634.06;4947686;29;19922;-79
2022/05/03 06:42:54;;;;;;;;;;;;;;;16.97;54.70;100635.00;4962935;28;19918;-80
2022/05/03 06:45:39;;;;;;;;;;;;;;;17.09;54.85;100640.38;4975594;28;19914;-80
2022/05/03 06:48:24;;;;;;;;;;;;;;;17.15;54.44;100638.16;4975402;28;19915;-80
2022/05/03 06:51:08;;;;;;;;;;;;;;;17.16;54.03;100639.75;4967181;29;19914;-80
2022/05/03 06:53:54;;;;;;;;;;;;;;;17.27;53.61;100643.50;4966862;29;19914;-80
2022/05/03 06:56:38;;;;;;;;;;;;;;;17.38;52.62;100636.25;4965168;28;19914;-80
2022/05/03 06:59:22;;;;;;;;;;;;;;;17.48;51.75;100643.91;4954228;29;19918;-79
2022/05/03 07:02:08;;;;;;;;;;;;;;;17.58;50.69;100648.81;4959201;29;20326;-81
2022/05/03 07:04:53;;;;;;;;;;;;;;;23.54;37.43;100651.25;4966172;28;19918;-84
2022/05/03 07:07:38;;;;;;;;;;;;;;;26.78;30.33;100656.22;4963130;28;19915;-83
2022/05/03 07:10:23;;;;;;;;;;;;;;;29.00;26.77;100669.13;4967337;28;19918;-85
2022/05/03 07:13:12;;;;;;;;;;;;;;;31.00;23.71;100665.94;4964332;28;20407;-86
2022/05/03 07:15:57;;;;;;;;;;;;;;;31.26;23.54;100672.25;4967544;28;19914;-85
2022/05/03 07:24:49;;;;;;;;;;;;;;;29.50;22.90;100662.09;4965594;28;19915;-87
2022/05/03 07:27:35;;;;;;;;;;;;;;;24.37;30.42;100661.44;4971443;28;19919;-84
2022/05/03 07:30:19;;;;;;;;;;;;;;;22.66;34.19;100655.84;4943073;29;19915;-87
2022/05/03 07:33:04;;;;;;;;;;;;;;;21.92;35.90;100644.75;4945188;29;19915;-86
2022/05/03 07:35:49;;;;;;;;;;;;;;;21.63;37.16;100652.22;4949560;29;19923;-85
2022/05/03 07:38:34;;;;;;;;;;;;;;;21.18;38.18;100643.34;4965162;29;20306;-85
2022/05/03 07:41:18;;;;;;;;;;;;;;;21.01;38.51;100652.34;4958618;29;19919;-80
2022/05/03 07:44:03;;;;;;;;;;;;;;;20.69;38.66;100654.13;4943653;29;19938;-81
2022/05/03 07:46:47;;;;;;;;;;;;;;;20.61;39.36;100658.03;4946227;29;19915;-80
2022/05/03 07:49:31;;;;;;;;;;;;;;;20.69;40.35;100651.34;4955655;29;19914;-80
2022/05/03 07:52:16;;;;;;;;;;;;;;;20.65;40.93;100651.34;4954821;29;19915;-81
2022/05/03 07:55:02;;;;;;;;;;;;;;;20.40;41.82;100651.16;4954503;29;19915;-81
2022/05/03 07:57:46;;;;;;;;;;;;;;;20.37;40.94;100654.69;4954486;29;19914;-81
2022/05/03 08:00:31;;;;;;;;;;;;;;;20.38;41.68;100653.50;4943368;29;19918;-80
2022/05/03 08:03:16;;;;;;;;;;;;;;;20.37;41.72;100664.94;4940333;29;19914;-81
2022/05/03 08:06:02;;;;;;;;;;;;;;;20.38;41.33;100664.56;4946193;29;19914;-81
2022/05/03 08:08:47;;;;;;;;;;;;;;;20.31;41.04;100663.72;4940488;28;19914;-80
2022/05/03 08:11:31;;;;;;;;;;;;;;;20.37;41.68;100662.97;4961842;28;19914;-81
2022/05/03 08:14:15;;;;;;;;;;;;;;;20.48;40.05;100663.06;4972068;28;19914;-83
2022/05/03 08:17:00;;;;;;;;;;;;;;;20.79;38.54;100654.19;4975950;28;19913;-83
2022/05/03 08:19:45;;;;;;;;;;;;;;;20.93;38.05;100667.28;4961722;28;20318;-83
2022/05/03 08:22:33;;;;;;;;;;;;;;;21.02;37.62;100659.47;4978023;28;19918;-83
2022/05/03 08:25:18;;;;;;;;;;;;;;;21.13;36.95;100654.75;4955950;29;19919;-84
2022/05/03 08:28:02;;;;;;;;;;;;;;;21.20;37.17;100665.91;4957204;29;19915;-84
2022/05/03 08:30:47;;;;;;;;;;;;;;;21.22;36.36;100669.06;4958547;29;19915;-84
2022/05/03 08:33:32;;;;;;;;;;;;;;;21.45;36.82;100671.53;4961547;29;19914;-84
2022/05/03 08:36:17;;;;;;;;;;;;;;;21.61;35.77;100669.22;4971541;28;20441;-84
2022/05/03 08:42:06;;;;;;;;;;;;;;;21.75;36.31;100668.44;4998348;28;19918;-84
2022/05/03 08:44:51;;;;;;;;;;;;;;;21.96;35.78;100668.53;4959319;29;19914;-83
2022/05/03 08:47:36;;;;;;;;;;;;;;;21.97;35.47;100669.31;4957076;29;19915;-83
2022/05/03 08:50:22;;;;;;;;;;;;;;;21.99;35.62;100673.25;4962573;28;19915;-83
2022/05/03 08:53:07;;;;;;;;;;;;;;;21.97;35.66;100681.19;4961480;29;19914;-84
2022/05/03 08:55:52;;;;;;;;;;;;;;;22.09;34.83;100678.06;4968487;29;19914;-83
2022/05/03 08:58:37;;;;;;;;;;;;;;;22.12;35.47;100677.25;4967688;28;19936;-84
2022/05/03 09:01:24;;;;;;;;;;;;;;;22.12;35.45;100680.03;4965463;29;19919;-84
2022/05/03 09:04:09;;;;;;;;;;;;;;;22.15;35.45;100675.66;4954232;28;19914;-84
2022/05/03 09:06:54;;;;;;;;;;;;;;;22.26;35.08;100670.13;4949157;28;19915;-83
2022/05/03 09:09:39;;;;;;;;;;;;;;;22.38;34.46;100669.75;4952435;29;19915;-83
2022/05/03 09:12:25;;;;;;;;;;;;;;;22.40;33.57;100670.91;4948820;29;19919;-84
2022/05/03 09:15:14;;;;;;;;;;;;;;;22.49;33.29;100668.56;4948728;29;19915;-84
2022/05/03 09:17:59;;;;;;;;;;;;;;;22.54;33.17;100664.59;4948540;29;19914;-84
2022/05/03 09:24:01;;;;;;;;;;;;;;;22.68;33.57;100664.56;4969138;28;19914;-80
2022/05/03 09:26:47;;;;;;;;;;;;;;;22.83;33.02;100671.69;4966501;28;19915;-81
2022/05/03 09:29:31;;;;;;;;;;;;;;;22.92;33.57;100674.06;4968741;28;19930;-82
2022/05/03 09:32:32;;;;;;;;;;;;;;;22.89;32.82;100667.34;4974439;28;19914;-80
2022/05/03 09:35:30;;;;;;;;;;;;;;;22.98;32.54;100661.34;4970107;29;19915;-81
2022/05/03 09:38:15;;;;;;;;;;;;;;;23.14;31.20;100670.03;4971160;29;19915;-81
2022/05/03 09:41:10;;;;;;;;;;;;;;;23.25;31.62;100670.78;4974619;28;19918;-81
2022/05/03 09:44:08;;;;;;;;;;;;;;;23.43;30.62;100662.38;4967288;29;19919;-81
2022/05/03 09:46:54;;;;;;;;;;;;;;;23.53;31.11;100669.09;4954089;29;19918;-81
2022/05/03 09:49:40;;;;;;;;;;;;;;;23.60;31.17;100664.31;4971687;29;19914;-81
2022/05/03 09:52:29;;;;;;;;;;;;;;;23.56;30.52;100665.53;4970347;29;19914;-81
2022/05/03 09:55:25;;;;;;;;;;;;;;;23.68;30.87;100659.50;4951630;29;19914;-81
2022/05/03 09:58:11;;;;;;;;;;;;;;;23.60;31.05;100657.97;4964583;29;19915;-81
2022/05/03 10:00:56;;;;;;;;;;;;;;;23.80;30.44;100668.16;4960927;28;19919;-81
2022/05/03 10:03:42;;;;;;;;;;;;;;;24.08;29.75;100660.81;4962569;29;19914;-81
2022/05/03 10:06:28;;;;;;;;;;;;;;;24.45;29.03;100652.59;4973133;28;19915;-81
2022/05/03 10:09:13;;;;;;;;;;;;;;;24.32;29.12;100662.66;4965396;29;19918;-81
2022/05/03 10:11:58;;;;;;;;;;;;;;;24.24;29.90;100661.13;4966667;29;19915;-81
2022/05/03 10:14:43;;;;;;;;;;;;;;;24.09;29.82;100654.06;4962743;29;20306;-82
2022/05/03 10:21:02;;;;;;;;;;;;;;;23.62;31.50;100648.03;4971847;28;19914;-81
2022/05/03 10:24:05;;;;;;;;;;;;;;;23.63;32.52;100652.38;4967299;28;19918;-80
2022/05/03 10:26:56;;;;;;;;;;;;;;;23.72;33.08;100649.19;4969073;28;20349;-81
2022/05/03 10:30:00;;;;;;;;;;;;;;;23.67;32.01;100647.59;4985479;28;20322;-82
2022/05/03 10:32:45;;;;;;;;;;;;;;;23.71;32.33;100653.94;4963082;29;19915;-82
2022/05/03 10:35:34;;;;;;;;;;;;;;;23.59;32.03;100640.50;4962466;29;19914;-80
2022/05/03 10:38:38;;;;;;;;;;;;;;;23.59;32.20;100643.28;4970175;29;19918;-81
2022/05/03 10:41:24;;;;;;;;;;;;;;;23.58;32.63;100636.16;4969985;29;20395;-82
2022/05/03 10:44:27;;;;;;;;;;;;;;;23.55;33.00;100634.19;4963874;28;19914;-82
2022/05/03 10:47:13;;;;;;;;;;;;;;;23.58;32.48;100627.81;4965341;28;19914;-82
2022/05/03 10:50:12;;;;;;;;;;;;;;;23.41;32.91;100623.94;4947627;28;19922;-81
2022/05/03 10:53:01;;;;;;;;;;;;;;;23.39;32.92;100609.66;4950609;29;19919;-82
2022/05/03 10:56:05;;;;;;;;;;;;;;;23.59;31.77;100623.06;4948811;29;19918;-81
2022/05/03 10:59:10;;;;;;;;;;;;;;;23.61;31.76;100623.47;4958855;28;19914;-82
2022/05/03 11:01:55;;;;;;;;;;;;;;;23.67;32.13;100619.81;4967949;28;19918;-82
2022/05/03 11:04:58;;;;;;;;;;;;;;;23.66;31.34;100629.38;4961301;28;19914;-81
2022/05/03 11:08:02;;;;;;;;;;;;;;;23.70;31.18;100618.25;4957840;29;19914;-81
2022/05/03 11:10:46;;;;;;;;;;;;;;;23.60;31.96;100616.31;4951406;28;20399;-81
2022/05/03 11:16:22;;;;;;;;;;;;;;;23.69;30.94;100608.31;5006407;28;19925;-83
2022/05/03 11:19:16;;;;;;;;;;;;;;;23.72;31.68;100611.06;4964395;28;20370;-82
2022/05/03 11:22:02;;;;;;;;;;;;;;;23.77;31.18;100612.66;4999301;28;19915;-81
2022/05/03 11:24:47;;;;;;;;;;;;;;;23.76;30.98;100611.84;4986452;28;19917;-82
2022/05/03 11:27:32;;;;;;;;;;;;;;;23.70;30.06;100596.03;4971879;28;19914;-82
2022/05/03 11:30:17;;;;;;;;;;;;;;;23.67;30.05;100603.16;4961018;28;19914;-83
2022/05/03 11:33:01;;;;;;;;;;;;;;;23.66;30.91;100596.06;4972435;28;19914;-83
2022/05/03 11:35:47;;;;;;;;;;;;;;;23.79;30.30;100596.34;5041664;28;20372;-83
2022/05/03 11:38:31;;;;;;;;;;;;;;;23.74;29.66;100597.56;4967556;28;19918;-83
2022/05/03 11:41:20;;;;;;;;;;;;;;;23.74;30.60;100597.56;4970542;28;19915;-82
2022/05/03 11:44:05;;;;;;;;;;;;;;;23.72;30.06;100594.41;4951617;28;19914;-82
2022/05/03 11:46:49;;;;;;;;;;;;;;;23.81;30.94;100591.19;4954139;28;19922;-83
2022/05/03 11:49:36;;;;;;;;;;;;;;;23.75;30.48;100584.47;4967871;28;19914;-82
2022/05/03 11:58:31;;;;;;;;;;;;;;;23.56;30.17;100576.69;4974422;28;19914;-83
2022/05/03 12:01:16;;;;;;;;;;;;;;;23.64;30.03;100581.78;4962818;28;19922;-82
2022/05/03 12:04:02;;;;;;;;;;;;;;;23.71;30.12;100583.72;4954857;28;19914;-83
2022/05/03 12:06:48;;;;;;;;;;;;;;;23.83;29.64;100584.00;4972244;28;19914;-85
2022/05/03 12:09:36;;;;;;;;;;;;;;;23.91;28.14;100573.66;5043734;28;19913;-83
2022/05/03 12:12:43;;;;;;;;;;;;;;;23.86;28.12;100562.97;5002088;28;19914;-83
2022/05/03 12:15:28;;;;;;;;;;;;;;;23.91;29.03;100575.63;4977621;28;19914;-83
2022/05/03 12:18:28;;;;;;;;;;;;;;;23.98;28.54;100576.34;4967692;28;20382;-84
2022/05/03 12:21:17;;;;;;;;;;;;;;;24.07;28.97;100578.69;4972628;28;19922;-83
2022/05/03 12:24:03;;;;;;;;;;;;;;;24.08;28.15;100571.91;4975731;28;20293;-82
2022/05/03 12:26:47;;;;;;;;;;;;;;;24.06;28.83;100568.75;4970028;28;19914;-83
2022/05/03 12:29:32;;;;;;;;;;;;;;;24.01;29.98;100560.88;4972134;28;19917;-83
2022/05/03 12:32:18;;;;;;;;;;;;;;;23.85;29.34;100566.94;4954744;28;20670;-83
2022/05/03 12:35:02;;;;;;;;;;;;;;;23.80;29.11;100575.72;4977796;28;20302;-83
2022/05/03 12:37:51;;;;;;;;;;;;;;;23.92;29.19;100571.66;4960909;28;19914;-83
2022/05/03 12:40:51;;;;;;;;;;;;;;;23.96;29.21;100564.88;5008564;28;19918;-83
2022/05/03 12:43:35;;;;;;;;;;;;;;;23.94;29.39;100566.47;4983165;28;19915;-83
2022/05/03 12:46:25;;;;;;;;;;;;;;;23.88;29.88;100558.56;4995640;28;19914;-83
2022/05/03 12:49:12;;;;;;;;;;;;;;;24.03;28.93;100564.00;5031246;28;19914;-83
2022/05/03 12:51:57;;;;;;;;;;;;;;;24.14;28.71;100564.72;5010243;28;19912;-83
2022/05/03 12:54:42;;;;;;;;;;;;;;;24.27;27.98;100557.47;4983205;28;20311;-83
2022/05/03 13:00:32;;;;;;;;;;;;;;;24.33;28.26;100557.81;4963984;28;19918;-82
2022/05/03 13:03:17;;;;;;;;;;;;;;;24.35;29.03;100550.63;4993610;28;19914;-81
2022/05/03 13:06:01;;;;;;;;;;;;;;;24.37;28.99;100539.91;4982672;28;20378;-81
2022/05/03 13:08:47;;;;;;;;;;;;;;;24.50;27.74;100543.72;4979749;28;19939;-82
2022/05/03 13:11:35;;;;;;;;;;;;;;;24.50;27.71;100534.59;4990311;28;19914;-81
2022/05/03 13:14:20;;;;;;;;;;;;;;;24.55;28.08;100534.94;4975824;28;20282;-81
2022/05/03 13:17:04;;;;;;;;;;;;;;;24.51;27.24;100528.63;4961737;28;19914;-80
2022/05/03 13:19:49;;;;;;;;;;;;;;;24.60;27.28;100526.13;4971737;28;19918;-81
2022/05/03 13:22:33;;;;;;;;;;;;;;;24.50;27.46;100517.91;4974782;28;20370;-82
2022/05/03 13:25:18;;;;;;;;;;;;;;;24.56;27.10;100530.94;4973401;28;19918;-81
2022/05/03 13:28:05;;;;;;;;;;;;;;;24.77;26.71;100529.91;4976962;28;20386;-81
2022/05/03 13:30:50;;;;;;;;;;;;;;;24.81;26.09;100527.06;4982720;28;19914;-81
2022/05/03 13:33:35;;;;;;;;;;;;;;;24.60;26.76;100525.34;4961165;28;19914;-80
2022/05/03 13:42:26;;;;;;;;;;;;;;;24.38;27.75;100521.25;4974922;28;19914;-83
2022/05/03 13:45:10;;;;;;;;;;;;;;;24.26;26.92;100519.78;4974257;28;19914;-80
2022/05/03 13:47:55;;;;;;;;;;;;;;;24.22;27.61;100521.81;4969037;28;19914;-82
2022/05/03 13:50:40;;;;;;;;;;;;;;;24.08;27.70;100521.88;4962824;28;19914;-82
2022/05/03 13:53:25;;;;;;;;;;;;;;;23.99;28.00;100516.03;4956262;28;19922;-81
2022/05/03 13:56:09;;;;;;;;;;;;;;;23.97;27.75;100510.13;4966119;28;19914;-82
2022/05/03 13:58:54;;;;;;;;;;;;;;;23.87;28.97;100509.00;4984130;28;20298;-81
2022/05/03 14:01:38;;;;;;;;;;;;;;;23.88;28.59;100502.25;5027984;28;19914;-83
2022/05/03 14:04:24;;;;;;;;;;;;;;;23.94;29.16;100505.38;4983383;28;19914;-81
2022/05/03 14:07:08;;;;;;;;;;;;;;;23.91;28.97;100503.41;4968652;28;19914;-82
2022/05/03 14:09:52;;;;;;;;;;;;;;;23.90;28.97;100502.63;4988398;28;19918;-81
2022/05/03 14:12:37;;;;;;;;;;;;;;;23.92;29.61;100494.69;4965812;28;19914;-84
2022/05/03 14:15:22;;;;;;;;;;;;;;;23.96;29.51;100487.09;4976154;28;19914;-82
2022/05/03 14:18:06;;;;;;;;;;;;;;;23.91;29.60;100490.31;4990344;28;20306;-82
2022/05/03 14:20:51;;;;;;;;;;;;;;;23.94;29.37;100492.25;4965070;28;19919;-84
2022/05/03 14:23:35;;;;;;;;;;;;;;;23.91;29.16;100489.53;4972505;28;19914;-80
2022/05/03 14:26:20;;;;;;;;;;;;;;;23.87;30.41;100484.78;4972284;28;19921;-81
2022/05/03 14:29:07;;;;;;;;;;;;;;;23.93;29.91;100490.69;4974229;28;19914;-81
2022/05/03 14:31:52;;;;;;;;;;;;;;;23.91;29.84;100489.53;4972009;28;19914;-81
2022/05/03 14:34:36;;;;;;;;;;;;;;;23.81;29.70;100492.00;4974955;28;19914;-82
2022/05/03 14:37:24;;;;;;;;;;;;;;;23.72;29.55;100493.69;4990026;28;19914;-81
2022/05/03 14:40:09;;;;;;;;;;;;;;;23.79;29.83;100497.16;4977336;28;19917;-81
2022/05/03 14:42:54;;;;;;;;;;;;;;;23.82;29.81;100496.34;4970961;28;19914;-80
2022/05/03 14:45:39;;;;;;;;;;;;;;;23.80;29.73;100498.75;4965960;28;19914;-81
2022/05/03 14:48:23;;;;;;;;;;;;;;;23.76;30.52;100498.00;4971942;28;20371;-80
2022/05/03 14:51:07;;;;;;;;;;;;;;;23.76;29.50;100497.22;4975470;28;20313;-81
2022/05/03 14:53:52;;;;;;;;;;;;;;;23.74;29.46;100499.59;4974045;28;20386;-82
2022/05/03 15:02:53;;;;;;;;;;;;;;;23.61;30.22;100501.28;4963890;28;19918;-80
2022/05/03 15:05:38;;;;;;;;;;;;;;;23.64;30.35;100498.47;4971332;28;19914;-80
2022/05/03 15:08:22;;;;;;;;;;;;;;;23.64;30.51;100501.25;4973787;28;19918;-81
2022/05/03 15:11:07;;;;;;;;;;;;;;;23.67;30.98;100503.22;4983280;28;19914;-81
2022/05/03 15:13:51;;;;;;;;;;;;;;;23.65;30.24;100502.06;4962209;28;19918;-81